Time;durP1;ratioP1;P1;durP2;ratioP2;P2;SDS_P1;SDS_P2;PMS_P1;PMS_P2;Temp;Humidity;BMP_temperature;BMP_pressure;BME280_temperature;BME280_humidity;BME280_pressure;Samples;Min_cycle;Max_cycle;Signal;HPM_P1;HPM_P2
2023/07/23 00:02:24;;;;;;;7.20;5.03;;;;;;;15.47;100.00;100728.28;4982444;28;20268;-92
2023/07/23 00:05:08;;;;;;;7.70;5.25;;;;;;;15.51;100.00;100728.63;4979966;28;20050;-92
2023/07/23 00:07:38;;;;;;;10.25;5.30;;;;;;;15.50;100.00;100716.03;4977053;28;20023;-92
2023/07/23 00:10:19;;;;;;;;;;;;;;;;;;;;;
2023/07/23 00:12:47;;;;;;;11.07;5.25;;;;;;;15.53;100.00;100718.25;4997378;28;20049;-92
2023/07/23 00:15:32;;;;;;;12.00;5.50;;;;;;;15.51;100.00;100712.22;4979468;28;20109;-92
2023/07/23 00:18:09;;;;;;;11.65;5.47;;;;;;;15.52;100.00;100711.16;4979408;28;20471;-92
2023/07/23 00:20:43;;;;;;;11.32;5.55;;;;;;;15.45;100.00;100700.41;4960937;28;20039;-92
2023/07/23 00:23:12;;;;;;;8.57;5.22;;;;;;;15.48;100.00;100705.34;4977563;28;20094;-92
2023/07/23 00:25:46;;;;;;;9.00;5.50;;;;;;;15.44;100.00;100688.63;4979366;28;20022;-92
2023/07/23 00:28:22;;;;;;;10.27;5.43;;;;;;;15.50;100.00;100695.00;4964046;28;20049;-92
2023/07/23 00:30:53;;;;;;;8.80;5.43;;;;;;;15.39;100.00;100683.09;4979360;28;20069;-92
2023/07/23 00:33:20;;;;;;;8.93;5.20;;;;;;;15.49;100.00;100687.06;4963483;28;20073;-91
2023/07/23 00:35:45;;;;;;;7.80;5.43;;;;;;;15.48;100.00;100683.47;4963215;28;20478;-91
2023/07/23 00:38:16;;;;;;;11.70;5.37;;;;;;;15.40;100.00;100671.09;4978651;28;20053;-92
2023/07/23 00:40:46;;;;;;;7.65;5.32;;;;;;;15.42;100.00;100668.09;4979123;28;20054;-92
2023/07/23 00:43:16;;;;;;;10.85;5.47;;;;;;;15.42;100.00;100676.28;4963485;28;20049;-92
2023/07/23 00:45:44;;;;;;;6.07;4.77;;;;;;;15.39;100.00;100666.69;4978666;28;20076;-92
2023/07/23 00:48:15;;;;;;;10.02;4.65;;;;;;;15.33;100.00;100653.22;4978726;28;20487;-91
2023/07/23 00:50:45;;;;;;;8.40;4.95;;;;;;;15.30;100.00;100648.25;4962899;28;20030;-92
2023/07/23 00:53:16;;;;;;;11.95;4.75;;;;;;;15.37;100.00;100654.38;4963117;28;20040;-91
2023/07/23 00:55:41;;;;;;;7.38;4.80;;;;;;;15.31;100.00;100647.16;4960913;28;21687;-91
2023/07/23 00:58:11;;;;;;;8.23;4.97;;;;;;;15.23;100.00;100634.75;4979474;28;20042;-92
2023/07/23 01:00:38;;;;;;;8.70;4.57;;;;;;;15.27;100.00;100634.00;4978745;28;20364;-92
2023/07/23 01:03:16;;;;;;;6.10;3.95;;;;;;;15.26;100.00;100629.63;4962622;28;20030;-92
2023/07/23 01:05:49;;;;;;;9.70;3.92;;;;;;;15.20;100.00;100621.59;4978801;28;20054;-92
2023/07/23 01:08:19;;;;;;;8.50;4.13;;;;;;;15.21;100.00;100618.59;4978997;28;20050;-92
2023/07/23 01:10:56;;;;;;;9.27;3.97;;;;;;;15.25;100.00;100622.50;4978428;28;20027;-92
2023/07/23 01:13:24;;;;;;;8.48;3.90;;;;;;;15.20;100.00;100607.94;4978883;28;20065;-92
2023/07/23 01:15:52;;;;;;;7.18;4.10;;;;;;;15.19;100.00;100600.81;4978274;28;20026;-92
2023/07/23 01:18:32;;;;;;;6.55;4.20;;;;;;;15.25;100.00;100610.72;4962595;28;20125;-92
2023/07/23 01:21:09;;;;;;;5.60;4.13;;;;;;;15.19;100.00;100598.06;4948750;28;20475;-92
2023/07/23 01:23:43;;;;;;;10.48;4.45;;;;;;;15.17;100.00;100589.31;4979032;28;20121;-93
2023/07/23 01:26:11;;;;;;;7.18;4.28;;;;;;;15.17;100.00;100594.78;4978178;28;20026;-92
2023/07/23 01:28:47;;;;;;;11.68;4.82;;;;;;;15.17;100.00;100589.31;4962435;28;20133;-92
2023/07/23 01:31:12;;;;;;;9.35;4.65;;;;;;;15.12;100.00;100584.59;4962969;28;20041;-92
2023/07/23 01:33:49;;;;;;;7.13;4.63;;;;;;;15.16;100.00;100588.50;4978056;28;20047;-92
2023/07/23 01:36:16;;;;;;;9.38;4.55;;;;;;;15.12;100.00;100581.88;4962362;28;20045;-92
2023/07/23 01:38:44;;;;;;;7.72;4.25;;;;;;;15.13;100.00;100566.28;4978277;28;20026;-92
2023/07/23 01:41:19;;;;;;;9.77;4.90;;;;;;;15.12;100.00;100567.38;4978356;28;20030;-91
2023/07/23 01:43:45;;;;;;;10.90;4.63;;;;;;;15.11;100.00;100563.81;4978229;28;20031;-92
2023/07/23 01:46:14;;;;;;;7.28;4.97;;;;;;;15.13;100.00;100558.09;4978841;28;20117;-92
2023/07/23 01:48:44;;;;;;;8.13;4.72;;;;;;;15.16;100.00;100565.78;4977919;28;20054;-91
2023/07/23 01:51:12;;;;;;;9.63;4.82;;;;;;;15.14;100.00;100555.09;4946484;28;20034;-92
2023/07/23 01:53:40;;;;;;;9.77;4.90;;;;;;;15.14;100.00;100548.81;4977409;28;20065;-92
2023/07/23 01:56:18;;;;;;;;;;;;;;;;;;;;;
2023/07/23 01:58:44;;;;;;;8.90;5.43;;;;;;;15.15;100.00;100542.28;4995091;28;20038;-91
2023/07/23 02:01:16;;;;;;;7.17;4.73;;;;;;;15.14;100.00;100529.69;4977989;28;20117;-91
2023/07/23 02:03:46;;;;;;;7.22;4.55;;;;;;;15.19;100.00;100547.00;4978556;28;20485;-92
2023/07/23 02:06:19;;;;;;;7.80;4.72;;;;;;;15.14;100.00;100530.50;4977615;28;20554;-92
2023/07/23 02:08:57;;;;;;;;;;;;;;;;;;;;;
2023/07/23 02:11:35;;;;;;;7.90;4.20;;;;;;;15.24;100.00;100535.28;4978990;28;20410;-91
2023/07/23 02:14:09;;;;;;;7.13;4.60;;;;;;;15.19;100.00;100521.56;4946682;28;20121;-91
2023/07/23 02:16:38;;;;;;;6.57;4.57;;;;;;;15.20;100.00;100512.28;4977429;28;20089;-92
2023/07/23 02:19:06;;;;;;;7.82;4.18;;;;;;;15.21;100.00;100508.47;4977404;28;20407;-92
2023/07/23 02:21:34;;;;;;;8.10;4.25;;;;;;;15.29;100.00;100507.19;4976878;28;20073;-92
2023/07/23 02:24:00;;;;;;;9.10;4.50;;;;;;;15.27;100.00;100504.72;4977946;28;20027;-92
2023/07/23 02:26:37;;;;;;;8.70;4.17;;;;;;;15.29;100.00;100499.00;4976990;28;20080;-92
2023/07/23 02:29:12;;;;;;;7.85;3.95;;;;;;;15.27;100.00;100497.34;4977528;28;20352;-92
2023/07/23 02:31:46;;;;;;;8.57;3.80;;;;;;;15.35;100.00;100508.91;4977277;28;20030;-92
2023/07/23 02:34:16;;;;;;;9.00;4.18;;;;;;;15.30;100.00;100487.81;4977818;28;20038;-91
2023/07/23 02:36:47;;;;;;;8.80;4.07;;;;;;;15.33;100.00;100491.94;4977381;28;20088;-92
2023/07/23 02:39:35;;;;;;;7.82;3.90;;;;;;;15.32;100.00;100487.56;4977247;28;20035;-92
2023/07/23 02:42:03;;;;;;;8.90;3.92;;;;;;;15.32;100.00;100485.63;4977101;28;20030;-92
2023/07/23 02:44:33;;;;;;;5.55;3.60;;;;;;;15.34;100.00;100483.50;4961119;28;20035;-92
2023/07/23 02:47:03;;;;;;;6.07;3.67;;;;;;;15.39;100.00;100485.44;4976387;28;20034;-92
2023/07/23 02:49:41;;;;;;;7.57;3.80;;;;;;;15.43;100.00;100489.31;4961928;28;20470;-92
2023/07/23 02:52:09;;;;;;;7.10;3.83;;;;;;;15.41;100.00;100475.91;4977185;28;20029;-92
2023/07/23 02:54:35;;;;;;;6.70;3.47;;;;;;;15.49;100.00;100485.56;4961388;28;20476;-92
2023/07/23 02:57:01;;;;;;;7.93;3.93;;;;;;;15.44;100.00;100480.88;4976756;28;20116;-92
2023/07/23 02:59:31;;;;;;;6.53;3.28;;;;;;;15.50;100.00;100481.75;4961150;28;20035;-92
2023/07/23 03:01:59;;;;;;;7.53;3.72;;;;;;;15.48;100.00;100483.91;5009826;28;20026;-92
2023/07/23 03:04:26;;;;;;;5.45;3.25;;;;;;;15.53;100.00;100489.44;4960929;28;20093;-92
2023/07/23 03:07:00;;;;;;;8.13;3.87;;;;;;;15.53;98.93;100472.19;4976987;28;20058;-92
2023/07/23 03:09:30;;;;;;;5.07;3.25;;;;;;;15.55;98.29;100473.59;4977622;28;20100;-91
2023/07/23 03:11:59;;;;;;;6.38;3.45;;;;;;;15.56;98.67;100468.94;4977221;28;20034;-91
2023/07/23 03:14:24;;;;;;;5.10;3.30;;;;;;;15.52;99.08;100471.38;4976386;28;20054;-91
2023/07/23 03:17:00;;;;;;;;;;;;;;;;;;;;;
2023/07/23 03:19:25;;;;;;;7.57;3.22;;;;;;;15.61;97.27;100474.47;4978940;28;20045;-92
2023/07/23 03:21:51;;;;;;;7.40;3.63;;;;;;;15.57;98.33;100460.47;4976784;28;20125;-91
2023/07/23 03:24:27;;;;;;;;;;;;;;;;;;;;;
2023/07/23 03:26:52;;;;;;;6.20;3.10;;;;;;;15.59;96.17;100460.25;4995185;28;20354;-91
2023/07/23 03:29:33;;;;;;;8.88;3.22;;;;;;;15.65;96.04;100469.28;4976954;28;20109;-91
2023/07/23 03:32:07;;;;;;;6.47;2.92;;;;;;;15.64;95.75;100470.41;4963007;28;20129;-91
2023/07/23 03:34:38;;;;;;;10.20;3.23;;;;;;;15.58;95.33;100459.41;4982169;28;20030;-91
2023/07/23 03:37:03;;;;;;;6.28;3.17;;;;;;;15.63;94.92;100466.00;4980484;28;20474;-91
2023/07/23 03:39:31;;;;;;;5.25;3.15;;;;;;;15.67;95.45;100472.63;4963734;28;20069;-92
2023/07/23 03:42:07;;;;;;;4.33;3.03;;;;;;;15.58;94.64;100462.13;4980041;28;20037;-91
2023/07/23 03:44:37;;;;;;;6.55;3.05;;;;;;;15.60;95.31;100459.97;4997943;28;20030;-92
2023/07/23 03:47:19;;;;;;;10.70;3.28;;;;;;;15.60;94.23;100453.66;4964892;28;20038;-91
2023/07/23 03:49:50;;;;;;;10.30;2.80;;;;;;;15.65;93.13;100455.63;4979968;28;20092;-91
2023/07/23 03:52:16;;;;;;;6.88;3.08;;;;;;;15.62;93.55;100467.94;4979761;28;20042;-91
2023/07/23 03:54:45;;;;;;;4.30;2.73;;;;;;;15.63;93.81;100457.81;4979688;28;20030;-91
2023/07/23 03:57:16;;;;;;;5.65;2.90;;;;;;;15.67;92.78;100457.03;4979267;28;20483;-91
2023/07/23 03:59:52;;;;;;;8.95;2.97;;;;;;;15.69;93.33;100456.75;4979576;28;20031;-91
2023/07/23 04:02:21;;;;;;;7.53;2.93;;;;;;;15.70;92.25;100461.16;5012513;28;20463;-91
2023/07/23 04:04:54;;;;;;;7.18;3.10;;;;;;;15.73;92.08;100460.63;4979502;28;20081;-91
2023/07/23 04:07:22;;;;;;;4.95;2.95;;;;;;;15.75;92.30;100467.50;4980175;28;20081;-91
2023/07/23 04:09:48;;;;;;;6.65;3.30;;;;;;;15.72;92.23;100465.28;4979720;28;20463;-91
2023/07/23 04:12:16;;;;;;;6.27;3.33;;;;;;;15.76;91.60;100465.59;4979110;28;20040;-92
2023/07/23 04:14:44;;;;;;;6.93;2.85;;;;;;;15.81;89.96;100464.84;4980029;28;20076;-91
2023/07/23 04:17:10;;;;;;;6.25;3.20;;;;;;;15.86;90.05;100468.44;4979056;28;20498;-92
2023/07/23 04:20:03;;;;;;;;;;;;;;;;;;;;;
2023/07/23 04:22:32;;;;;;;4.27;2.80;;;;;;;15.84;89.62;100458.84;4990475;28;20033;-92
2023/07/23 04:25:04;;;;;;;10.18;2.78;;;;;;;15.86;89.75;100456.69;4963215;28;20045;-91
2023/07/23 04:27:32;;;;;;;5.40;2.70;;;;;;;15.88;89.79;100466.25;4956804;28;20027;-92
2023/07/23 04:30:08;;;;;;;4.75;3.10;;;;;;;15.92;89.45;100466.59;4963446;28;20463;-91
2023/07/23 04:32:44;;;;;;;6.88;2.83;;;;;;;15.94;89.43;100458.94;4963660;28;20034;-92
2023/07/23 04:35:21;;;;;;;4.73;2.90;;;;;;;15.96;89.96;100457.59;4963882;28;20037;-92
2023/07/23 04:37:51;;;;;;;5.35;2.90;;;;;;;15.98;89.44;100465.53;4979231;28;20069;-92
2023/07/23 04:40:34;;;;;;;7.05;2.63;;;;;;;16.01;89.34;100461.47;4964065;28;20456;-92
2023/07/23 04:42:59;;;;;;;5.78;2.75;;;;;;;15.99;88.31;100458.16;4979387;28;20062;-92
2023/07/23 04:45:30;;;;;;;4.73;2.73;;;;;;;16.01;88.66;100465.00;4978635;28;20502;-92
2023/07/23 04:48:10;;;;;;;4.63;2.80;;;;;;;16.05;88.80;100463.41;4979481;28;20447;-92
2023/07/23 04:50:47;;;;;;;5.95;2.95;;;;;;;16.04;88.04;100450.00;4965272;28;20070;-91
2023/07/23 04:53:27;;;;;;;7.93;3.10;;;;;;;16.08;88.63;100451.13;4978989;28;20030;-92
2023/07/23 04:56:02;;;;;;;6.97;2.70;;;;;;;16.13;87.54;100451.97;4978935;28;20065;-92
2023/07/23 04:58:53;;;;;;;8.23;3.40;;;;;;;16.02;88.94;100463.94;4963892;28;20038;-92
2023/07/23 05:01:32;;;;;;;5.85;3.00;;;;;;;15.72;93.38;100454.34;4962897;28;20038;-93
2023/07/23 05:04:16;;;;;;;;;;;;;;;;;;;;;
2023/07/23 05:06:50;;;;;;;5.80;2.95;;;;;;;15.51;93.12;100461.50;4981014;28;20371;-92
2023/07/23 05:09:18;;;;;;;6.90;2.50;;;;;;;15.46;95.06;100453.28;4963429;28;20045;-92
2023/07/23 05:11:56;;;;;;;;;;;;;;;;;;;;;
2023/07/23 05:14:39;;;;;;;5.63;2.72;;;;;;;15.07;96.63;100458.84;4996551;28;20042;-91
2023/07/23 05:17:15;;;;;;;10.13;3.10;;;;;;;15.18;97.08;100474.28;4978778;28;20038;-91
2023/07/23 05:20:01;;;;;;;;;;;;;;;;;;;;;
2023/07/23 05:22:41;;;;;;;5.20;2.77;;;;;;;15.10;98.22;100469.25;4996197;28;20045;-91
2023/07/23 05:25:21;;;;;;;4.10;2.50;;;;;;;14.82;100.00;100465.66;4978787;28;20026;-92
2023/07/23 05:27:58;;;;;;;9.07;3.25;;;;;;;14.68;100.00;100453.44;4963932;28;20037;-91
2023/07/23 05:30:47;;;;;;;13.68;3.60;;;;;;;14.63;100.00;100469.72;5010257;28;20462;-91
2023/07/23 05:33:15;;;;;;;5.30;2.97;;;;;;;14.54;100.00;100455.66;4995291;28;20037;-89
2023/07/23 05:35:40;;;;;;;7.13;3.40;;;;;;;14.54;100.00;100458.38;4961281;28;20041;-85
2023/07/23 05:38:06;;;;;;;4.13;2.80;;;;;;;14.66;100.00;100459.16;4977701;28;20034;-85
2023/07/23 05:40:37;;;;;;;8.07;3.10;;;;;;;14.85;100.00;100446.03;5010485;28;20121;-85
2023/07/23 05:43:17;;;;;;;6.90;2.65;;;;;;;15.07;100.00;100456.94;4995201;28;20035;-85
2023/07/23 05:45:42;;;;;;;5.45;2.83;;;;;;;15.17;100.00;100452.69;4977555;28;20038;-86
2023/07/23 05:48:08;;;;;;;10.20;3.10;;;;;;;14.87;100.00;100457.50;4977201;28;20030;-86
2023/07/23 05:50:33;;;;;;;7.70;2.87;;;;;;;14.76;100.00;100463.09;4994614;28;20101;-86
2023/07/23 05:53:10;;;;;;;5.90;2.95;;;;;;;14.88;100.00;100467.38;4961170;28;20426;-88
2023/07/23 05:55:35;;;;;;;10.03;2.90;;;;;;;15.20;100.00;100454.91;4962120;28;20439;-86
2023/07/23 05:58:00;;;;;;;4.07;2.80;;;;;;;15.35;99.80;100446.03;4976328;28;20526;-86
2023/07/23 06:00:28;;;;;;;5.57;2.75;;;;;;;15.51;98.21;100447.84;4977222;28;20030;-86
2023/07/23 06:02:55;;;;;;;8.03;2.60;;;;;;;15.65;96.26;100447.41;4961083;28;20097;-86
2023/07/23 06:05:20;;;;;;;5.65;3.33;;;;;;;15.64;96.41;100468.47;4977536;28;20045;-86
2023/07/23 06:07:48;;;;;;;6.47;3.17;;;;;;;15.68;96.40;100466.88;4994259;28;20026;-85
2023/07/23 06:10:13;;;;;;;6.05;3.10;;;;;;;15.64;98.32;100454.00;4994539;28;20069;-85
2023/07/23 06:12:39;;;;;;;6.40;2.80;;;;;;;15.44;99.71;100458.16;4977041;28;20034;-85
2023/07/23 06:15:05;;;;;;;9.27;2.90;;;;;;;15.16;100.00;100459.22;4961135;28;20124;-87
2023/07/23 06:17:30;;;;;;;4.27;2.63;;;;;;;14.89;100.00;100465.44;4960648;28;20034;-87
2023/07/23 06:19:55;;;;;;;5.68;3.30;;;;;;;14.69;100.00;100483.22;4960937;28;20026;-85
2023/07/23 06:22:21;;;;;;;6.40;3.17;;;;;;;14.38;100.00;100460.09;4961714;28;20034;-86
2023/07/23 06:24:46;;;;;;;7.27;3.90;;;;;;;14.26;100.00;100465.66;4976991;28;20471;-86
2023/07/23 06:27:12;;;;;;;5.37;3.30;;;;;;;14.16;100.00;100471.75;4977406;28;20033;-86
2023/07/23 06:29:37;;;;;;;5.60;3.50;;;;;;;13.99;100.00;100469.00;4960809;28;20101;-87
2023/07/23 06:32:03;;;;;;;6.57;3.67;;;;;;;14.03;100.00;100469.34;4960744;28;20277;-86
2023/07/23 06:34:28;;;;;;;5.30;3.60;;;;;;;14.10;100.00;100469.19;4961342;28;20038;-87
2023/07/23 06:36:54;;;;;;;6.00;3.75;;;;;;;14.12;100.00;100477.97;4976534;28;20034;-86
2023/07/23 06:39:20;;;;;;;9.10;3.40;;;;;;;14.28;100.00;100487.22;4994089;28;20042;-87
2023/07/23 06:41:46;;;;;;;5.10;3.08;;;;;;;14.30;100.00;100476.88;4976810;28;20041;-86
2023/07/23 06:44:11;;;;;;;8.73;3.73;;;;;;;14.37;100.00;100485.72;4993894;28;20042;-86
2023/07/23 06:46:37;;;;;;;5.57;3.47;;;;;;;14.57;100.00;100498.84;4993997;28;20069;-86
2023/07/23 06:49:02;;;;;;;5.73;2.90;;;;;;;14.52;100.00;100493.31;4960279;28;20089;-86
2023/07/23 06:51:27;;;;;;;9.03;3.17;;;;;;;14.41;100.00;100495.06;4976622;28;20033;-87
2023/07/23 06:53:53;;;;;;;6.00;2.87;;;;;;;14.28;100.00;100500.88;4977048;28;20285;-86
2023/07/23 06:56:19;;;;;;;8.43;4.00;;;;;;;14.21;100.00;100514.66;4976185;28;20492;-87
2023/07/23 06:58:49;;;;;;;7.43;3.90;;;;;;;14.10;100.00;100500.03;4961596;28;20129;-91
2023/07/23 07:01:22;;;;;;;5.43;3.83;;;;;;;14.08;100.00;100502.16;4977263;28;20037;-91
2023/07/23 07:03:58;;;;;;;8.87;4.07;;;;;;;14.03;100.00;100502.09;4977872;28;20030;-92
2023/07/23 07:06:26;;;;;;;7.53;4.20;;;;;;;13.97;100.00;100503.09;4963160;28;20048;-91
2023/07/23 07:08:53;;;;;;;8.88;4.22;;;;;;;13.90;100.00;100503.22;4979519;28;20041;-91
2023/07/23 07:11:24;;;;;;;9.90;4.13;;;;;;;13.90;100.00;100510.59;4980493;28;20088;-91
2023/07/23 07:13:49;;;;;;;12.70;4.75;;;;;;;13.89;100.00;100500.75;4964597;28;20026;-91
2023/07/23 07:16:24;;;;;;;10.47;4.93;;;;;;;13.85;100.00;100492.25;4980637;28;20030;-91
2023/07/23 07:18:50;;;;;;;9.65;4.70;;;;;;;13.81;100.00;100491.06;4981398;28;20030;-91
2023/07/23 07:21:18;;;;;;;10.23;4.33;;;;;;;13.76;100.00;100488.25;4980590;28;20027;-91
2023/07/23 07:23:46;;;;;;;7.13;4.50;;;;;;;13.73;100.00;100492.31;4981021;28;20030;-90
2023/07/23 07:26:22;;;;;;;12.15;4.90;;;;;;;13.78;100.00;100499.75;4980076;28;20097;-91
2023/07/23 07:31:45;;;;;;;9.80;5.28;;;;;;;13.72;100.00;100489.84;4997814;28;20038;-89
2023/07/23 07:34:15;;;;;;;11.00;5.07;;;;;;;13.79;100.00;100491.31;4980584;28;20026;-89
2023/07/23 07:36:46;;;;;;;11.05;5.70;;;;;;;13.82;100.00;100493.56;4964137;28;20039;-90
2023/07/23 07:39:12;;;;;;;11.48;5.00;;;;;;;13.85;100.00;100493.06;4980238;28;20147;-89
2023/07/23 07:41:42;;;;;;;11.60;4.70;;;;;;;13.89;100.00;100496.09;4980011;28;20054;-90
2023/07/23 07:44:28;;;;;;;9.98;5.65;;;;;;;13.97;100.00;100489.44;4964935;28;20034;-89
2023/07/23 07:46:57;;;;;;;9.32;4.95;;;;;;;14.00;100.00;100489.78;4979079;28;20042;-89
2023/07/23 07:49:22;;;;;;;8.80;5.47;;;;;;;14.13;100.00;100501.41;4979692;28;20038;-89
2023/07/23 07:51:59;;;;;;;8.35;4.63;;;;;;;14.06;100.00;100496.13;4980377;28;20032;-89
2023/07/23 07:54:32;;;;;;;8.95;5.03;;;;;;;14.10;100.00;100493.72;4980362;28;20093;-90
2023/07/23 07:57:01;;;;;;;11.07;5.37;;;;;;;14.13;100.00;100493.22;4977313;28;20046;-90
2023/07/23 07:59:38;;;;;;;13.40;5.07;;;;;;;14.19;100.00;100503.19;4964161;28;20133;-90
2023/07/23 08:02:06;;;;;;;10.82;5.57;;;;;;;14.20;100.00;100500.19;4997691;28;20030;-93
2023/07/23 08:04:39;;;;;;;9.18;5.05;;;;;;;14.22;100.00;100486.31;4979692;28;20030;-88
2023/07/23 08:07:06;;;;;;;10.35;5.35;;;;;;;14.36;100.00;100498.56;4979655;28;20034;-93
2023/07/23 08:09:36;;;;;;;8.00;4.60;;;;;;;14.31;100.00;100495.72;4979728;28;20130;-90
2023/07/23 08:12:04;;;;;;;8.40;5.20;;;;;;;14.40;100.00;100498.88;4979562;28;20026;-90
2023/07/23 08:14:30;;;;;;;9.77;4.72;;;;;;;14.49;100.00;100494.63;4996501;28;20041;-91
2023/07/23 08:17:04;;;;;;;9.18;5.30;;;;;;;14.51;100.00;100489.75;4979439;28;20360;-91
2023/07/23 08:19:38;;;;;;;7.07;4.37;;;;;;;14.56;100.00;100505.38;4978277;28;20038;-91
2023/07/23 08:22:06;;;;;;;9.05;5.13;;;;;;;14.59;100.00;100498.59;4979217;28;20467;-90
2023/07/23 08:24:40;;;;;;;8.57;4.15;;;;;;;14.61;100.00;100490.97;5013360;28;20026;-90
2023/07/23 08:27:21;;;;;;;7.85;4.50;;;;;;;14.70;100.00;100479.41;4978802;28;20034;-90
2023/07/23 08:29:49;;;;;;;7.65;3.83;;;;;;;14.68;100.00;100483.47;4978631;28;20463;-90
2023/07/23 08:32:35;;;;;;;6.67;4.00;;;;;;;14.82;100.00;100497.56;4978771;28;20032;-90
2023/07/23 08:35:05;;;;;;;7.20;3.75;;;;;;;14.83;100.00;100494.59;4978153;28;20042;-92
2023/07/23 08:37:36;;;;;;;7.93;4.00;;;;;;;14.78;100.00;100490.97;4979706;28;20032;-88
2023/07/23 08:40:02;;;;;;;6.43;2.80;;;;;;;14.91;100.00;100496.91;4979565;28;20148;-89
2023/07/23 08:42:30;;;;;;;6.75;3.40;;;;;;;14.95;100.00;100502.66;4962406;28;20475;-90
2023/07/23 08:45:22;;;;;;;7.97;3.37;;;;;;;15.12;100.00;100510.81;4978706;28;20034;-91
2023/07/23 08:47:57;;;;;;;6.20;2.83;;;;;;;15.17;100.00;100502.69;4979529;28;20117;-91
2023/07/23 08:50:26;;;;;;;3.63;2.80;;;;;;;15.16;100.00;100484.66;4979528;28;20034;-91
2023/07/23 08:52:54;;;;;;;5.30;3.20;;;;;;;15.23;100.00;100496.19;4962469;28;20042;-90
2023/07/23 08:55:23;;;;;;;4.50;3.17;;;;;;;15.16;100.00;100495.59;4978352;28;20130;-90
2023/07/23 08:57:51;;;;;;;4.70;2.50;;;;;;;15.12;100.00;100482.66;4978224;28;20125;-90
2023/07/23 09:00:22;;;;;;;8.80;3.10;;;;;;;15.16;100.00;100492.84;4995627;28;20121;-90
2023/07/23 09:02:51;;;;;;;4.65;2.88;;;;;;;15.23;100.00;100492.63;4979225;28;20038;-90
2023/07/23 09:05:19;;;;;;;3.53;2.45;;;;;;;15.31;100.00;100494.09;4978318;28;20030;-88
2023/07/23 09:07:49;;;;;;;5.80;2.60;;;;;;;15.24;100.00;100486.09;4977966;28;20057;-88
2023/07/23 09:10:19;;;;;;;5.37;2.70;;;;;;;15.35;100.00;100498.78;4978226;28;20034;-88
2023/07/23 09:12:47;;;;;;;3.30;2.60;;;;;;;15.37;100.00;100490.34;5011585;28;20069;-87
2023/07/23 09:15:13;;;;;;;4.03;2.65;;;;;;;15.40;100.00;100493.38;4995536;28;20113;-87
2023/07/23 09:17:39;;;;;;;4.20;2.70;;;;;;;15.40;100.00;100507.06;4995375;28;20055;-88
2023/07/23 09:20:12;;;;;;;3.93;2.57;;;;;;;15.29;100.00;100483.41;4977956;28;20089;-87
2023/07/23 09:22:40;;;;;;;4.30;2.88;;;;;;;15.30;100.00;100500.66;4961565;28;20038;-88
2023/07/23 09:25:10;;;;;;;3.97;2.30;;;;;;;15.31;100.00;100497.66;4977906;28;20027;-87
2023/07/23 09:27:41;;;;;;;4.43;3.03;;;;;;;15.37;100.00;100504.03;4962706;28;20030;-87
2023/07/23 09:30:17;;;;;;;5.78;3.33;;;;;;;15.32;100.00;100499.28;4978016;28;20026;-87
2023/07/23 09:32:54;;;;;;;4.35;2.92;;;;;;;15.30;100.00;100509.66;4978039;28;20427;-86
2023/07/23 09:35:24;;;;;;;3.92;2.58;;;;;;;15.13;100.00;100507.00;5010544;28;20034;-86
2023/07/23 09:37:59;;;;;;;4.35;3.08;;;;;;;15.08;100.00;100505.03;4995062;28;20038;-86
2023/07/23 09:40:39;;;;;;;5.40;3.50;;;;;;;14.97;100.00;100516.06;4977784;28;20034;-86
2023/07/23 09:43:05;;;;;;;4.68;2.95;;;;;;;15.00;100.00;100512.84;4977511;28;20027;-86
2023/07/23 09:45:35;;;;;;;6.95;2.83;;;;;;;15.04;100.00;100505.78;4977491;28;20085;-86
2023/07/23 09:48:03;;;;;;;7.03;3.45;;;;;;;15.07;100.00;100514.31;5010400;28;20030;-86
2023/07/23 09:50:30;;;;;;;5.67;3.57;;;;;;;15.07;100.00;100508.00;4977494;28;20030;-86
2023/07/23 09:52:56;;;;;;;7.05;3.55;;;;;;;15.07;100.00;100511.59;4977387;28;20026;-86
2023/07/23 09:55:27;;;;;;;6.55;3.60;;;;;;;15.02;100.00;100516.16;4994918;28;20034;-86
2023/07/23 09:57:56;;;;;;;5.65;3.47;;;;;;;15.01;100.00;100511.75;4977342;28;20088;-86
2023/07/23 10:00:24;;;;;;;6.82;3.58;;;;;;;15.01;100.00;100507.13;4977177;28;20038;-86
2023/07/23 10:02:50;;;;;;;5.47;3.10;;;;;;;15.01;100.00;100528.16;4977047;28;20445;-86
2023/07/23 10:05:18;;;;;;;6.38;3.28;;;;;;;14.93;100.00;100521.22;4977203;28;20105;-86
2023/07/23 10:07:47;;;;;;;6.88;2.75;;;;;;;14.89;100.00;100520.88;4977326;28;20038;-86
2023/07/23 10:10:17;;;;;;;5.18;3.15;;;;;;;14.92;100.00;100530.50;4977206;28;20069;-86
2023/07/23 10:12:48;;;;;;;5.77;3.07;;;;;;;14.88;100.00;100518.41;4994894;28;20026;-86
2023/07/23 10:15:16;;;;;;;6.55;3.15;;;;;;;14.93;100.00;100529.44;4994691;28;20119;-87
2023/07/23 10:17:52;;;;;;;5.25;2.70;;;;;;;14.95;100.00;100531.91;4977854;28;20030;-87
2023/07/23 10:20:19;;;;;;;5.25;3.30;;;;;;;14.97;100.00;100530.59;4977201;28;20025;-87
2023/07/23 10:22:45;;;;;;;7.93;3.13;;;;;;;15.01;100.00;100530.88;4977435;28;20533;-86
2023/07/23 10:25:34;;;;;;;7.17;3.17;;;;;;;15.02;100.00;100532.56;4976770;28;20030;-86
2023/07/23 10:28:02;;;;;;;5.15;2.95;;;;;;;15.00;100.00;100542.88;4977092;28;20033;-86
2023/07/23 10:30:30;;;;;;;4.90;3.00;;;;;;;14.99;100.00;100527.59;4994375;28;20030;-86
2023/07/23 10:33:12;;;;;;;4.57;3.20;;;;;;;15.04;100.00;100547.63;4994084;28;20386;-86
2023/07/23 10:35:54;;;;;;;4.75;2.97;;;;;;;15.01;100.00;100537.16;4976622;28;20038;-86
2023/07/23 10:38:21;;;;;;;5.73;3.30;;;;;;;15.00;100.00;100545.63;4976857;28;20036;-86
2023/07/23 10:40:47;;;;;;;5.13;3.08;;;;;;;15.05;100.00;100527.41;4976761;28;20081;-87
2023/07/23 10:43:14;;;;;;;5.22;3.08;;;;;;;15.08;100.00;100531.53;4979020;28;20525;-86
2023/07/23 10:45:51;;;;;;;3.92;2.65;;;;;;;15.08;100.00;100532.34;4980495;28;20037;-86
2023/07/23 10:48:22;;;;;;;4.68;3.10;;;;;;;15.11;100.00;100533.75;4980807;28;20128;-87
2023/07/23 10:51:01;;;;;;;5.57;2.90;;;;;;;15.18;100.00;100530.84;4981035;28;20481;-93
2023/07/23 10:53:32;;;;;;;4.90;3.05;;;;;;;15.27;100.00;100534.78;4981610;28;20023;-89
2023/07/23 10:56:02;;;;;;;5.30;3.58;;;;;;;15.31;100.00;100524.16;5013839;28;20033;-88
2023/07/23 10:58:28;;;;;;;5.53;3.55;;;;;;;15.37;100.00;100509.50;4980462;28;20069;-88
2023/07/23 11:00:59;;;;;;;5.50;3.63;;;;;;;15.46;100.00;100518.03;4964598;28;20470;-90
2023/07/23 11:03:26;;;;;;;5.13;3.50;;;;;;;15.60;100.00;100522.03;4980476;28;20361;-88
2023/07/23 11:05:52;;;;;;;6.30;3.55;;;;;;;15.71;100.00;100525.72;4998462;28;20039;-89
2023/07/23 11:08:26;;;;;;;4.22;3.30;;;;;;;15.91;100.00;100520.47;4998691;28;20030;-90
2023/07/23 11:11:05;;;;;;;5.63;3.50;;;;;;;16.17;100.00;100531.66;4997610;28;20034;-90
2023/07/23 11:13:34;;;;;;;5.25;3.58;;;;;;;16.53;100.00;100522.88;4980539;28;20036;-87
2023/07/23 11:16:01;;;;;;;3.93;3.03;;;;;;;16.81;100.00;100536.22;4997782;28;20069;-86
2023/07/23 11:18:31;;;;;;;4.38;3.30;;;;;;;17.05;100.00;100533.13;4964641;28;20035;-86
2023/07/23 11:20:57;;;;;;;4.85;3.38;;;;;;;17.34;100.00;100529.94;4980880;28;20050;-85
2023/07/23 11:23:25;;;;;;;4.13;3.50;;;;;;;17.48;100.00;100520.13;4980838;28;20443;-86
2023/07/23 11:25:51;;;;;;;3.47;3.17;;;;;;;17.63;100.00;100535.78;4996192;28;20042;-85
2023/07/23 11:28:18;;;;;;;5.17;3.33;;;;;;;17.52;100.00;100529.47;4979798;28;20034;-86
2023/07/23 11:30:43;;;;;;;4.70;2.97;;;;;;;17.46;100.00;100536.00;4997227;28;20034;-86
2023/07/23 11:33:12;;;;;;;4.40;3.53;;;;;;;17.83;100.00;100528.69;4963790;28;20076;-87
2023/07/23 11:35:38;;;;;;;4.35;3.72;;;;;;;18.93;100.00;100524.56;5011929;28;20030;-87
2023/07/23 11:38:07;;;;;;;5.53;3.22;;;;;;;19.95;100.00;100513.38;4963809;28;20093;-89
2023/07/23 11:40:33;;;;;;;4.13;3.10;;;;;;;19.86;100.00;100515.91;4979542;28;20038;-88
2023/07/23 11:43:06;;;;;;;3.47;2.85;;;;;;;19.79;100.00;100518.16;4997482;28;20037;-88
2023/07/23 11:45:44;;;;;;;6.27;3.43;;;;;;;19.58;100.00;100515.50;4979713;28;20494;-87
2023/07/23 11:48:15;;;;;;;4.75;3.20;;;;;;;19.73;100.00;100527.53;4997402;28;20022;-88
2023/07/23 11:50:41;;;;;;;5.40;3.72;;;;;;;19.63;100.00;100521.00;4979954;28;20111;-88